AQQ10 IFIS: Internet Flight Information System
logo dgac
Lunes 20 de Septiembre del 2021
Buscar por aerodromo o helipuerto
Ingrese nombre de aeródromo, localidad o designador OACI:
METAR del 20-09-2021 a las 11:00 UTC
Para mayor información visite www.meteochile.cl
METAR SCSN 201100Z AUTO VRB02KT 9999 NCD 04/04 Q1022
Viento: dirección variable, velocidad 2 nudos
Visibilidad: 10 km o más
Temperatura: 4 °C
Rocío: 4 °C
Humedad_relativa: 100%
Presión: 1022 hPa
METAR del 20-09-2021 a las 10:00 UTC
Para mayor información visite www.meteochile.cl
METAR SCSN 201000Z AUTO VRB02KT 9999 NCD 04/04 Q1022
Viento: dirección variable, velocidad 2 nudos
Visibilidad: 10 km o más
Temperatura: 4 °C
Rocío: 4 °C
Humedad_relativa: 100%
Presión: 1022 hPa
METAR del 20-09-2021 a las 09:00 UTC
Para mayor información visite www.meteochile.cl
METAR SCSN 200900Z AUTO VRB01KT 9999 NCD 04/04 Q1022
Viento: dirección variable, velocidad 1 nudos
Visibilidad: 10 km o más
Temperatura: 4 °C
Rocío: 4 °C
Humedad_relativa: 100%
Presión: 1022 hPa
METAR del 20-09-2021 a las 08:00 UTC
Para mayor información visite www.meteochile.cl
METAR SCSN 200800Z AUTO VRB02KT 9999 NCD 04/04 Q1022
Viento: dirección variable, velocidad 2 nudos
Visibilidad: 10 km o más
Temperatura: 4 °C
Rocío: 4 °C
Humedad_relativa: 100%
Presión: 1022 hPa
METAR del 20-09-2021 a las 07:00 UTC
Para mayor información visite www.meteochile.cl
METAR SCSN 200700Z AUTO 00000KT 9999 NCD 05/05 Q1022
Visibilidad: 10 km o más
Temperatura: 5 °C
Rocío: 5 °C
Humedad_relativa: 100%
Presión: 1022 hPa
METAR del 20-09-2021 a las 06:00 UTC
Para mayor información visite www.meteochile.cl
METAR SCSN 200600Z AUTO VRB01KT 9999 NCD 06/06 Q1023
Viento: dirección variable, velocidad 1 nudos
Visibilidad: 10 km o más
Temperatura: 6 °C
Rocío: 6 °C
Humedad_relativa: 100%
Presión: 1023 hPa
METAR del 20-09-2021 a las 05:00 UTC
Para mayor información visite www.meteochile.cl
METAR SCSN 200500Z AUTO VRB01KT 9999 NCD 06/06 Q1023
Viento: dirección variable, velocidad 1 nudos
Visibilidad: 10 km o más
Temperatura: 6 °C
Rocío: 6 °C
Humedad_relativa: 100%
Presión: 1023 hPa
METAR del 20-09-2021 a las 04:00 UTC
Para mayor información visite www.meteochile.cl
METAR SCSN 200400Z AUTO VRB02KT 9999 NCD 06/06 Q1023
Viento: dirección variable, velocidad 2 nudos
Visibilidad: 10 km o más
Temperatura: 6 °C
Rocío: 6 °C
Humedad_relativa: 100%
Presión: 1023 hPa
METAR del 20-09-2021 a las 03:00 UTC
Para mayor información visite www.meteochile.cl
METAR SCSN 200300Z AUTO VRB02KT 9999 NCD 07/06 Q1023
Viento: dirección variable, velocidad 2 nudos
Visibilidad: 10 km o más
Temperatura: 7 °C
Rocío: 6 °C
Humedad_relativa: 93%
Presión: 1023 hPa
METAR del 20-09-2021 a las 02:00 UTC
Para mayor información visite www.meteochile.cl
METAR SCSN 200200Z AUTO 18005KT 9999 NCD 09/06 Q1023
Viento: dirección 180 grados, velocidad 5 nudos
Visibilidad: 10 km o más
Temperatura: 9 °C
Rocío: 6 °C
Humedad_relativa: 81%
Presión: 1023 hPa